createdAt,value
2017-11-07T00:00:12.347Z,100.9
2017-11-07T00:01:11.223Z,100.9
2017-11-07T00:02:10.524Z,100.9
2017-11-07T00:03:09.534Z,100.9
2017-11-07T00:04:08.435Z,101
2017-11-07T00:05:07.327Z,101
2017-11-07T00:06:06.752Z,101
2017-11-07T00:08:04.412Z,101
2017-11-07T00:09:03.826Z,101
2017-11-07T00:10:02.837Z,101
2017-11-07T00:11:01.481Z,101
2017-11-07T00:12:00.758Z,101
2017-11-07T00:12:59.656Z,101
2017-11-07T00:13:58.794Z,101
2017-11-07T00:14:58.068Z,101
2017-11-07T00:15:56.846Z,101
2017-11-07T00:16:55.989Z,101.1
2017-11-07T00:17:26.446Z,101.1
2017-11-07T00:17:56.904Z,101.1
2017-11-07T00:18:27.363Z,101.1
2017-11-07T00:18:57.580Z,101.1
2017-11-07T00:19:53.199Z,101.1
2017-11-07T00:21:51.235Z,101.1
2017-11-07T00:22:50.153Z,101.2
2017-11-07T00:24:47.920Z,101.1
2017-11-07T00:25:47.095Z,101.1
2017-11-07T00:26:46.249Z,101.1
2017-11-07T00:27:45.031Z,101.1
2017-11-07T00:28:44.475Z,101.1
2017-11-07T00:29:43.484Z,101.2
2017-11-07T00:30:42.493Z,101.2
2017-11-07T00:31:41.520Z,101.2
2017-11-07T00:32:40.654Z,101.2
2017-11-07T00:33:39.796Z,101.2
2017-11-07T00:34:38.295Z,101.2
2017-11-07T00:35:37.556Z,101.2
2017-11-07T00:36:36.462Z,101.2
2017-11-07T00:37:35.729Z,101.2
2017-11-07T00:38:34.606Z,101.2
2017-11-07T00:40:32.758Z,101.2
2017-11-07T00:41:31.891Z,101.2
2017-11-07T00:42:30.896Z,101.2
2017-11-07T00:43:29.772Z,101.2
2017-11-07T00:44:28.780Z,101.2
2017-11-07T00:45:27.786Z,101.2
2017-11-07T00:46:27.057Z,101.2
2017-11-07T00:47:26.062Z,101.2
2017-11-07T00:49:24.215Z,101.2
2017-11-07T00:50:23.489Z,101.2
2017-11-07T00:51:22.257Z,101.2
2017-11-07T00:52:21.395Z,101.2
2017-11-07T00:53:20.162Z,101.2
2017-11-07T00:54:19.534Z,101.2
2017-11-07T00:55:18.672Z,101.2
2017-11-07T00:56:17.546Z,101.2
2017-11-07T00:57:16.317Z,101.2
2017-11-07T00:58:15.454Z,101.2
2017-11-07T00:58:46.023Z,101.2
2017-11-07T00:59:16.469Z,101.2
2017-11-07T00:59:46.791Z,101.2
2017-11-07T01:00:17.485Z,101.2
2017-11-07T01:01:12.597Z,101.2
2017-11-07T01:02:11.506Z,101.2
2017-11-07T01:03:10.561Z,101.2
2017-11-07T01:04:09.434Z,101.2
2017-11-07T01:05:08.814Z,101.2
2017-11-07T01:06:07.684Z,101.2
2017-11-07T01:07:06.819Z,101.2
2017-11-07T01:08:06.061Z,101.2
2017-11-07T01:10:03.946Z,101.2
2017-11-07T01:11:03.085Z,101.2
2017-11-07T01:12:02.099Z,101.2
2017-11-07T01:13:01.237Z,101.2
2017-11-07T01:14:00.244Z,101.2
2017-11-07T01:14:59.253Z,101.2
2017-11-07T01:15:58.024Z,101.2
2017-11-07T01:16:56.919Z,101.2
2017-11-07T01:17:56.297Z,101.2
2017-11-07T01:18:55.567Z,101.2
2017-11-07T01:19:54.065Z,101.2
2017-11-07T01:20:53.341Z,101.2
2017-11-07T01:21:52.335Z,101.2
2017-11-07T01:22:51.602Z,101.2
2017-11-07T01:23:50.600Z,101.2
2017-11-07T01:24:49.733Z,101.2
2017-11-07T01:25:48.764Z,101.2
2017-11-07T01:26:47.394Z,101.2
2017-11-07T01:27:46.912Z,101.2
2017-11-07T01:30:43.812Z,101.2
2017-11-07T01:31:42.715Z,101.2
2017-11-07T01:32:42.127Z,101.2
2017-11-07T01:33:40.916Z,101.2
2017-11-07T01:34:40.057Z,101.2
2017-11-07T01:35:39.062Z,101.2
2017-11-07T01:36:37.936Z,101.2
2017-11-07T01:37:36.942Z,101.2
2017-11-07T01:38:35.841Z,101.2
2017-11-07T01:39:35.107Z,101.2
2017-11-07T01:40:34.009Z,101.3
2017-11-07T01:41:33.281Z,101.3
2017-11-07T01:42:32.286Z,101.3
2017-11-07T01:43:31.207Z,101.3
2017-11-07T01:44:30.227Z,101.3
2017-11-07T01:45:29.101Z,101.3
2017-11-07T01:46:28.118Z,101.3
2017-11-07T01:47:27.268Z,101.4
2017-11-07T01:48:26.402Z,101.4
2017-11-07T01:49:25.548Z,101.4
2017-11-07T01:50:24.686Z,101.4
2017-11-07T01:51:23.461Z,101.4
2017-11-07T01:52:22.334Z,101.4
2017-11-07T01:53:21.708Z,101.4
2017-11-07T01:54:20.718Z,101.4
2017-11-07T01:56:18.873Z,101.4
2017-11-07T01:56:49.189Z,101.4
2017-11-07T01:57:19.789Z,101.4
2017-11-07T01:58:16.781Z,101.4
2017-11-07T01:59:15.915Z,101.4
2017-11-07T02:00:15.054Z,101.3
2017-11-07T02:02:13.206Z,101.4
2017-11-07T02:03:12.107Z,101.4
2017-11-07T02:04:11.139Z,101.4
2017-11-07T02:05:10.273Z,101.4
2017-11-07T02:06:09.280Z,101.4
2017-11-07T02:07:08.427Z,101.3
2017-11-07T02:08:07.443Z,101.4
2017-11-07T02:09:06.576Z,101.4
2017-11-07T02:10:05.381Z,101.4
2017-11-07T02:11:04.525Z,101.3
2017-11-07T02:12:03.176Z,101.4
2017-11-07T02:13:02.312Z,101.4
2017-11-07T02:14:01.189Z,101.4
2017-11-07T02:15:00.334Z,101.4
2017-11-07T02:15:59.835Z,101.4
2017-11-07T02:16:58.465Z,101.4
2017-11-07T02:17:57.597Z,101.4
2017-11-07T02:18:56.601Z,101.4
2017-11-07T02:19:56.007Z,101.4
2017-11-07T02:20:54.910Z,101.3
2017-11-07T02:21:53.926Z,101.3
2017-11-07T02:22:52.839Z,101.3
2017-11-07T02:23:51.746Z,101.4
2017-11-07T02:24:50.782Z,101.3
2017-11-07T02:25:49.658Z,101.3
2017-11-07T02:26:48.812Z,101.3
2017-11-07T02:27:48.087Z,101.3
2017-11-07T02:28:46.719Z,101.3
2017-11-07T02:29:45.986Z,101.3
2017-11-07T02:30:44.993Z,101.3
2017-11-07T02:31:44.266Z,101.4
2017-11-07T02:32:42.894Z,101.3
2017-11-07T02:33:42.162Z,101.3
2017-11-07T02:34:41.166Z,101.2
2017-11-07T02:35:40.037Z,101.3
2017-11-07T02:36:39.304Z,101.3
2017-11-07T02:37:09.517Z,101.3
2017-11-07T02:37:39.990Z,101.3
2017-11-07T02:38:37.378Z,101.3
2017-11-07T02:39:36.138Z,101.3
2017-11-07T02:40:35.409Z,101.3
2017-11-07T02:41:34.787Z,101.3
2017-11-07T02:42:33.663Z,101.3
2017-11-07T02:43:32.830Z,101.3
2017-11-07T02:44:31.732Z,101.3
2017-11-07T02:46:29.682Z,101.3
2017-11-07T02:47:28.958Z,101.2
2017-11-07T02:48:27.829Z,101.3
2017-11-07T02:49:26.595Z,101.3
2017-11-07T02:50:25.745Z,101.3
2017-11-07T02:51:24.888Z,101.3
2017-11-07T02:52:23.891Z,101.3
2017-11-07T02:53:23.028Z,101.3
2017-11-07T02:54:21.926Z,101.2
2017-11-07T02:55:20.934Z,101.2
2017-11-07T02:57:19.094Z,101.2
2017-11-07T02:58:17.969Z,101.2
2017-11-07T02:59:17.103Z,101.2
2017-11-07T03:00:16.169Z,101.1
2017-11-07T03:01:15.315Z,101.2
2017-11-07T03:02:14.224Z,101.2
2017-11-07T03:03:13.363Z,101.2
2017-11-07T03:04:12.150Z,101.1
2017-11-07T03:05:11.302Z,101.1
2017-11-07T03:06:10.174Z,101.1
2017-11-07T03:07:09.319Z,101
2017-11-07T03:08:08.328Z,101.1
2017-11-07T03:09:07.597Z,101
2017-11-07T03:10:06.483Z,101
2017-11-07T03:11:05.351Z,101
2017-11-07T03:12:04.723Z,101
2017-11-07T03:13:03.597Z,101
2017-11-07T03:14:02.387Z,101
2017-11-07T03:15:01.531Z,100.9
2017-11-07T03:16:00.542Z,100.9
2017-11-07T03:16:59.802Z,100.9
2017-11-07T03:17:58.932Z,100.9
2017-11-07T03:18:57.815Z,100.9
2017-11-07T03:19:56.951Z,100.9
2017-11-07T03:20:55.716Z,100.9
2017-11-07T03:21:54.724Z,100.9
2017-11-07T03:22:53.995Z,100.9
2017-11-07T03:23:53.008Z,100.9
2017-11-07T03:24:51.920Z,100.9
2017-11-07T03:25:51.314Z,100.9
2017-11-07T03:26:57.515Z,100.9
2017-11-07T03:27:48.995Z,100.9
2017-11-07T03:28:48.280Z,100.9
2017-11-07T03:29:47.293Z,100.9
2017-11-07T03:30:46.081Z,100.8
2017-11-07T03:31:45.375Z,100.9
2017-11-07T03:32:44.252Z,100.9
2017-11-07T03:33:43.398Z,100.9
2017-11-07T03:34:42.406Z,100.8
2017-11-07T03:35:41.541Z,100.7
2017-11-07T03:36:40.545Z,100.6
2017-11-07T03:37:39.194Z,100.6
2017-11-07T03:38:38.569Z,100.4
2017-11-07T03:39:37.330Z,100.5
2017-11-07T03:40:36.710Z,100.5
2017-11-07T03:41:35.729Z,100.5
2017-11-07T03:42:34.615Z,100.5
2017-11-07T03:43:33.631Z,100.5
2017-11-07T03:44:32.775Z,100.3
2017-11-07T03:45:31.419Z,100.2
2017-11-07T03:46:30.962Z,100
2017-11-07T03:47:29.747Z,100
2017-11-07T03:48:28.899Z,100
2017-11-07T03:49:27.532Z,99.9
2017-11-07T03:50:26.803Z,99.8
2017-11-07T03:51:25.600Z,99.8
2017-11-07T03:52:24.887Z,99.8
2017-11-07T03:52:55.623Z,99.8
2017-11-07T03:53:25.946Z,99.8
2017-11-07T03:54:23.075Z,99.8
2017-11-07T03:55:22.100Z,99.8
2017-11-07T03:56:21.236Z,99.8
2017-11-07T03:57:20.246Z,99.8
2017-11-07T03:58:19.270Z,99.8
2017-11-07T03:59:17.928Z,99.8
2017-11-07T04:00:16.937Z,99.7
2017-11-07T04:01:16.201Z,99.7
2017-11-07T04:02:15.493Z,99.6
2017-11-07T04:03:14.002Z,99.7
2017-11-07T04:04:13.641Z,99.7
2017-11-07T04:05:12.277Z,99.8
2017-11-07T04:06:11.281Z,99.8
2017-11-07T04:07:10.415Z,99.8
2017-11-07T04:08:09.419Z,99.8
2017-11-07T04:09:08.559Z,99.8
2017-11-07T04:10:07.831Z,99.7
2017-11-07T04:10:38.284Z,99.7
2017-11-07T04:11:08.885Z,99.7
2017-11-07T04:12:05.389Z,99.8
2017-11-07T04:13:04.813Z,99.6
2017-11-07T04:14:03.821Z,99.4
2017-11-07T04:15:02.838Z,99.5
2017-11-07T04:16:01.851Z,99.5
2017-11-07T04:17:59.868Z,99.6
2017-11-07T04:18:58.641Z,99.6
2017-11-07T04:19:57.788Z,99.5
2017-11-07T04:20:56.936Z,99.6
2017-11-07T04:21:56.071Z,99.6
2017-11-07T04:23:53.717Z,99.7
2017-11-07T04:24:52.863Z,99.6
2017-11-07T04:27:50.264Z,99.6
2017-11-07T04:28:48.895Z,99.6
2017-11-07T04:29:48.182Z,99.6
2017-11-07T04:31:45.937Z,99.5
2017-11-07T04:33:44.347Z,99.5
2017-11-07T04:34:43.478Z,99.5
2017-11-07T04:35:42.122Z,99.4
2017-11-07T04:36:41.410Z,99.4
2017-11-07T04:37:40.569Z,99.3
2017-11-07T04:38:39.577Z,99.2
2017-11-07T04:39:38.360Z,99.3
2017-11-07T04:40:37.379Z,99.3
2017-11-07T04:41:36.395Z,99.3
2017-11-07T04:42:35.561Z,99.3
2017-11-07T04:43:34.457Z,99.3
2017-11-07T04:44:04.915Z,99.3
2017-11-07T04:44:35.375Z,99.2
2017-11-07T04:45:05.847Z,99.2
2017-11-07T04:46:31.682Z,99.2
2017-11-07T04:48:29.855Z,99.1
2017-11-07T04:49:28.510Z,99
2017-11-07T04:50:28.025Z,99
2017-11-07T04:51:27.176Z,98.9
2017-11-07T04:52:25.812Z,98.8
2017-11-07T04:53:25.103Z,98.7
2017-11-07T04:54:23.748Z,98.7
2017-11-07T04:55:23.026Z,98.7
2017-11-07T04:56:22.303Z,98.7
2017-11-07T04:58:20.088Z,98.7
2017-11-07T04:59:18.970Z,98.8
2017-11-07T05:00:18.118Z,98.7
2017-11-07T05:01:17.170Z,98.7
2017-11-07T05:04:14.082Z,98.6
2017-11-07T05:05:13.093Z,98.6
2017-11-07T05:06:12.377Z,98.6
2017-11-07T05:07:11.532Z,98.5
2017-11-07T05:08:10.472Z,98.5
2017-11-07T05:09:09.347Z,98.5
2017-11-07T05:10:08.755Z,98.5
2017-11-07T05:11:07.774Z,98.5
2017-11-07T05:12:06.426Z,98.5
2017-11-07T05:13:05.441Z,98.5
2017-11-07T05:14:04.959Z,98.3
2017-11-07T05:15:04.001Z,98.1
2017-11-07T05:16:02.893Z,98.1
2017-11-07T05:17:01.775Z,98
2017-11-07T05:18:00.665Z,98.1
2017-11-07T05:18:59.821Z,98.2
2017-11-07T05:19:58.706Z,98.2
2017-11-07T05:20:57.858Z,98.2
2017-11-07T05:21:56.880Z,98.2
2017-11-07T05:22:56.037Z,98.2
2017-11-07T05:23:26.527Z,98.2
2017-11-07T05:24:54.093Z,98.1
2017-11-07T05:25:52.980Z,98.1
2017-11-07T05:26:52.271Z,98.1
2017-11-07T05:27:51.286Z,98.1
2017-11-07T05:28:49.926Z,98.1
2017-11-07T05:29:49.069Z,98.1
2017-11-07T05:30:48.463Z,98.1
2017-11-07T05:31:47.272Z,98.1
2017-11-07T05:32:46.413Z,98.1
2017-11-07T05:33:45.445Z,98
2017-11-07T05:34:44.101Z,98
2017-11-07T05:35:43.128Z,98
2017-11-07T05:36:42.419Z,98.2
2017-11-07T05:37:41.432Z,98.1
2017-11-07T05:38:40.454Z,98.1
2017-11-07T05:39:39.479Z,98.1
2017-11-07T05:40:38.509Z,98.1
2017-11-07T05:42:36.549Z,98.1
2017-11-07T05:43:35.831Z,98
2017-11-07T05:44:34.612Z,98.1
2017-11-07T05:45:33.501Z,98.1
2017-11-07T05:46:32.645Z,98.1
2017-11-07T05:47:31.787Z,98.1
2017-11-07T05:48:30.954Z,98.1
2017-11-07T05:50:50.873Z,98.1
2017-11-07T05:51:27.744Z,98
2017-11-07T05:52:27.026Z,98.1
2017-11-07T05:53:26.032Z,98
2017-11-07T05:54:25.041Z,98
2017-11-07T05:55:24.046Z,98.1
2017-11-07T05:56:23.063Z,98.1
2017-11-07T05:57:22.344Z,98.1
2017-11-07T05:58:20.986Z,98.1
2017-11-07T05:59:19.995Z,98.1
2017-11-07T06:00:19.501Z,98
2017-11-07T06:01:18.373Z,98
2017-11-07T06:02:17.152Z,98
2017-11-07T06:03:16.154Z,98
2017-11-07T06:04:15.167Z,98
2017-11-07T06:06:13.186Z,98
2017-11-07T06:07:12.196Z,98.1
2017-11-07T06:08:11.465Z,98
2017-11-07T06:08:41.931Z,98
2017-11-07T06:10:09.383Z,98.1
2017-11-07T06:11:08.665Z,98.1
2017-11-07T06:13:06.689Z,98
2017-11-07T06:14:05.964Z,98
2017-11-07T06:15:04.599Z,98.1
2017-11-07T06:16:03.753Z,98.1
2017-11-07T06:17:03.030Z,98.1
2017-11-07T06:18:01.670Z,97.9
2017-11-07T06:18:32.014Z,97.9
2017-11-07T06:19:02.335Z,97.9
2017-11-07T06:19:33.015Z,97.9
2017-11-07T06:20:58.833Z,97.9
2017-11-07T06:21:57.970Z,98
2017-11-07T06:22:56.849Z,98
2017-11-07T06:23:55.994Z,98
2017-11-07T06:24:54.909Z,98
2017-11-07T06:25:54.042Z,98
2017-11-07T06:26:53.056Z,98
2017-11-07T06:27:52.192Z,98.1
2017-11-07T06:29:50.235Z,98.1
2017-11-07T06:30:49.023Z,98
2017-11-07T06:31:48.306Z,98
2017-11-07T06:32:47.311Z,98
2017-11-07T06:33:46.183Z,98
2017-11-07T06:34:45.319Z,98
2017-11-07T06:35:44.107Z,98
2017-11-07T06:36:43.529Z,98
2017-11-07T06:37:42.530Z,98.1
2017-11-07T06:38:41.533Z,98.1
2017-11-07T06:39:40.307Z,98.1
2017-11-07T06:40:39.314Z,98
2017-11-07T06:41:38.316Z,98
2017-11-07T06:42:37.452Z,98
2017-11-07T06:43:36.614Z,98.1
2017-11-07T06:44:35.764Z,98.1
2017-11-07T06:45:34.903Z,98.1
2017-11-07T06:46:33.905Z,98.1
2017-11-07T06:47:32.926Z,98.1
2017-11-07T06:48:31.558Z,98.1
2017-11-07T06:49:02.385Z,98.1
2017-11-07T06:49:33.076Z,98.1
2017-11-07T06:53:58.650Z,98.1
2017-11-07T06:56:07.920Z,98.1
2017-11-07T06:56:38.257Z,98.1
2017-11-07T06:57:23.050Z,98.1
2017-11-07T06:57:53.525Z,98.1
2017-11-07T06:58:24.120Z,98.1
2017-11-07T06:58:54.721Z,98.1
2017-11-07T06:59:25.049Z,98.1
2017-11-07T06:59:55.657Z,98.1
2017-11-07T07:00:26.226Z,98
2017-11-07T07:00:56.929Z,98
2017-11-07T07:02:18.096Z,98
2017-11-07T07:03:17.371Z,98
2017-11-07T07:04:16.273Z,98
2017-11-07T07:05:15.288Z,98.1
2017-11-07T07:06:14.587Z,98
2017-11-07T07:07:13.232Z,98
2017-11-07T07:08:12.620Z,98
2017-11-07T07:09:11.653Z,98
2017-11-07T07:09:42.221Z,98
2017-11-07T07:11:09.424Z,98
2017-11-07T07:12:08.671Z,98
2017-11-07T07:13:07.838Z,98
2017-11-07T07:14:06.482Z,98
2017-11-07T07:15:05.760Z,98.1
2017-11-07T07:16:05.013Z,98.1
2017-11-07T07:19:01.877Z,97.9
2017-11-07T07:20:00.884Z,97.9
2017-11-07T07:22:12.521Z,98
2017-11-07T07:22:58.070Z,97.9
2017-11-07T07:23:56.947Z,97.9
2017-11-07T07:24:56.093Z,98
2017-11-07T07:25:55.109Z,98
2017-11-07T07:26:54.119Z,98
2017-11-07T07:27:53.129Z,97.9
2017-11-07T07:28:52.139Z,97.9
2017-11-07T07:29:51.288Z,97.8
2017-11-07T07:30:50.436Z,97.8
2017-11-07T07:31:49.316Z,97.8
2017-11-07T07:32:48.195Z,97.9
2017-11-07T07:33:47.721Z,97.9
2017-11-07T07:34:46.238Z,98
2017-11-07T07:35:45.513Z,98
2017-11-07T07:36:44.674Z,98
2017-11-07T07:37:43.945Z,98
2017-11-07T07:38:42.589Z,98
2017-11-07T07:39:41.842Z,97.9
2017-11-07T07:40:13.638Z,97.9
2017-11-07T07:40:42.729Z,97.8
2017-11-07T07:41:13.322Z,97.8
2017-11-07T07:41:43.518Z,97.8
2017-11-07T07:42:13.973Z,97.8
2017-11-07T07:43:37.915Z,97.7
2017-11-07T07:44:36.927Z,97.6
2017-11-07T07:45:35.954Z,97.4
2017-11-07T07:46:35.240Z,97.5
2017-11-07T07:47:34.029Z,97.5
2017-11-07T07:49:32.200Z,97.5
2017-11-07T07:50:02.659Z,97.5
2017-11-07T07:50:32.731Z,97.5
2017-11-07T07:51:03.054Z,97.5
2017-11-07T07:51:33.619Z,97.5
2017-11-07T07:53:28.494Z,97.5
2017-11-07T07:55:26.406Z,97.4
2017-11-07T07:56:25.552Z,97.3
2017-11-07T07:57:24.330Z,97.3
2017-11-07T07:58:23.338Z,97.3
2017-11-07T08:00:21.498Z,97.3
2017-11-07T08:01:20.658Z,97.3
2017-11-07T08:02:19.808Z,97.3
2017-11-07T08:03:18.561Z,97.3
2017-11-07T08:04:17.573Z,97.2
2017-11-07T08:05:16.992Z,96.9
2017-11-07T08:06:15.928Z,96.9
2017-11-07T08:07:15.081Z,96.9
2017-11-07T08:08:13.960Z,96.9
2017-11-07T08:09:12.976Z,96.9
2017-11-07T08:10:11.986Z,96.9
2017-11-07T08:11:11.144Z,96.9
2017-11-07T08:12:10.032Z,96.9
2017-11-07T08:14:08.431Z,96.9
2017-11-07T08:15:07.084Z,96.9
2017-11-07T08:16:06.492Z,96.9
2017-11-07T08:17:05.517Z,96.9
2017-11-07T08:18:04.528Z,96.7
2017-11-07T08:19:03.434Z,96.7
2017-11-07T08:20:02.718Z,96.7
2017-11-07T08:21:01.608Z,96.4
2017-11-07T08:22:00.385Z,96.4
2017-11-07T08:22:59.778Z,96.5
2017-11-07T08:23:58.561Z,96.3
2017-11-07T08:24:57.947Z,96.3
2017-11-07T08:25:56.955Z,96.1
2017-11-07T08:26:55.732Z,96.1
2017-11-07T08:27:55.250Z,96.1
2017-11-07T08:28:53.765Z,96.1
2017-11-07T08:29:52.913Z,96.1
2017-11-07T08:30:52.055Z,96.1
2017-11-07T08:31:51.331Z,96.1
2017-11-07T08:32:49.976Z,96
2017-11-07T08:33:49.120Z,96
2017-11-07T08:34:48.397Z,95.8
2017-11-07T08:35:47.277Z,95.8
2017-11-07T08:36:46.525Z,95.7
2017-11-07T08:37:45.413Z,95.6
2017-11-07T08:38:44.571Z,95.7
2017-11-07T08:39:43.715Z,95.7
2017-11-07T08:41:41.877Z,95.6
2017-11-07T08:42:40.525Z,95.6
2017-11-07T08:43:39.687Z,95.3
2017-11-07T08:44:38.945Z,95.4
2017-11-07T08:47:43.297Z,95.3
2017-11-07T08:48:34.893Z,95.3
2017-11-07T08:49:34.417Z,95.2
2017-11-07T08:50:33.434Z,94.9
2017-11-07T08:51:32.206Z,94.9
2017-11-07T08:52:31.358Z,94.6
2017-11-07T08:53:30.515Z,94.7
2017-11-07T08:54:29.532Z,94.8
2017-11-07T08:55:28.548Z,94.8
2017-11-07T08:56:27.476Z,94.8
2017-11-07T08:57:26.632Z,95
2017-11-07T08:58:25.780Z,95.2
2017-11-07T08:59:24.696Z,95.2
2017-11-07T09:00:23.701Z,95.1
2017-11-07T09:01:22.482Z,95
2017-11-07T09:02:22.141Z,94.9
2017-11-07T09:03:21.050Z,94.7
2017-11-07T09:04:19.969Z,94.8
2017-11-07T09:05:18.743Z,94.5
2017-11-07T09:06:17.909Z,94.5
2017-11-07T09:07:16.919Z,94.6
2017-11-07T09:08:15.933Z,94.7
2017-11-07T09:10:14.103Z,94.7
2017-11-07T09:11:13.385Z,94.5
2017-11-07T09:12:12.533Z,94.5
2017-11-07T09:13:11.310Z,94.5
2017-11-07T09:14:10.698Z,94.5
2017-11-07T09:16:08.618Z,94.3
2017-11-07T09:17:07.637Z,94.5
2017-11-07T09:18:06.651Z,94.5
2017-11-07T09:19:05.528Z,94.2
2017-11-07T09:20:04.688Z,94.3
2017-11-07T09:21:03.707Z,94.3
2017-11-07T09:22:03.237Z,94.7
2017-11-07T09:23:02.012Z,94.6
2017-11-07T09:24:01.174Z,94
2017-11-07T09:25:00.227Z,94.2
2017-11-07T09:25:30.569Z,94.2
2017-11-07T09:26:58.419Z,94
2017-11-07T09:27:57.444Z,93.7
2017-11-07T09:28:56.602Z,93.9
2017-11-07T09:29:55.513Z,93.3
2017-11-07T09:30:54.265Z,93.5
2017-11-07T09:31:53.918Z,93.1
2017-11-07T09:32:52.431Z,92.7
2017-11-07T09:33:51.846Z,92.8
2017-11-07T09:34:50.862Z,92.3
2017-11-07T09:35:49.871Z,92.6
2017-11-07T09:36:49.014Z,92.7
2017-11-07T09:37:48.063Z,92.7
2017-11-07T09:38:47.217Z,92.7
2017-11-07T09:39:46.226Z,92.5
2017-11-07T09:41:44.258Z,92.7
2017-11-07T09:42:43.277Z,92.5
2017-11-07T09:43:42.422Z,92.6
2017-11-07T09:44:41.448Z,92.7
2017-11-07T09:45:40.329Z,93
2017-11-07T09:46:39.720Z,93.1
2017-11-07T09:47:38.864Z,93.1
2017-11-07T09:48:37.642Z,93
2017-11-07T09:49:36.660Z,92.8
2017-11-07T09:50:36.045Z,92.9
2017-11-07T09:51:34.832Z,93
2017-11-07T09:52:34.256Z,93.2
2017-11-07T09:53:33.271Z,93.3
2017-11-07T09:54:32.291Z,93.5
2017-11-07T09:55:31.170Z,93.5
2017-11-07T09:56:30.313Z,93.4
2017-11-07T09:57:29.332Z,93.6
2017-11-07T09:58:28.405Z,93.5
2017-11-07T09:59:27.550Z,93.5
2017-11-07T10:00:26.326Z,93.5
2017-11-07T10:01:25.822Z,93.5
2017-11-07T10:04:16.509Z,93.6
2017-11-07T10:05:21.929Z,93.3
2017-11-07T10:06:20.808Z,93.3
2017-11-07T10:07:19.838Z,93.2
2017-11-07T10:08:19.257Z,93.1
2017-11-07T10:09:18.273Z,93.4
2017-11-07T10:11:16.450Z,93.1
2017-11-07T10:12:15.606Z,93.3
2017-11-07T10:13:14.749Z,93.3
2017-11-07T10:14:13.769Z,93.5
2017-11-07T10:15:12.545Z,93.8
2017-11-07T10:16:11.705Z,93.7
2017-11-07T10:19:09.129Z,93.8
2017-11-07T10:20:08.271Z,93.8
2017-11-07T10:21:06.918Z,93.8
2017-11-07T10:22:06.067Z,93.8
2017-11-07T10:23:05.355Z,93.9
2017-11-07T10:24:04.135Z,93.8
2017-11-07T10:25:03.152Z,94
2017-11-07T10:26:02.167Z,93.8
2017-11-07T10:27:01.441Z,93.8
2017-11-07T10:28:00.851Z,93.6
2017-11-07T10:28:59.624Z,93.6
2017-11-07T10:29:58.640Z,93.6
2017-11-07T10:30:57.656Z,93.7
2017-11-07T10:31:56.856Z,93.6
2017-11-07T10:32:55.868Z,93.7
2017-11-07T10:33:54.877Z,93.5
2017-11-07T10:34:25.204Z,93.5
2017-11-07T10:34:55.541Z,93.6
2017-11-07T10:35:53.308Z,93.5
2017-11-07T10:36:52.452Z,93.5
2017-11-07T10:37:51.469Z,93.9
2017-11-07T10:38:50.376Z,94
2017-11-07T10:39:49.259Z,93.9
2017-11-07T10:40:48.425Z,93.7
2017-11-07T10:41:47.946Z,93.7
2017-11-07T10:42:46.456Z,93.9
2017-11-07T10:43:45.615Z,93.7
2017-11-07T10:44:16.199Z,93.7
2017-11-07T10:44:46.791Z,93.9
2017-11-07T10:45:17.132Z,93.9
2017-11-07T10:45:47.723Z,93.8
2017-11-07T10:46:18.195Z,93.8
2017-11-07T10:46:48.447Z,93.6
2017-11-07T10:47:41.931Z,93.7
2017-11-07T10:48:41.088Z,93.8
2017-11-07T10:49:40.520Z,93.8
2017-11-07T10:50:39.172Z,93.7
2017-11-07T10:51:38.191Z,93.6
2017-11-07T10:52:37.207Z,93.6
2017-11-07T10:53:36.724Z,93.7
2017-11-07T10:54:35.869Z,93.6
2017-11-07T10:55:34.754Z,93.6
2017-11-07T10:56:33.786Z,93.4
2017-11-07T10:57:32.937Z,93.5
2017-11-07T10:58:31.944Z,93.5
2017-11-07T10:59:31.242Z,93.6
2017-11-07T11:00:30.126Z,93.5
2017-11-07T11:01:29.138Z,93.5
2017-11-07T11:02:28.426Z,93.5
2017-11-07T11:03:27.206Z,93.7
2017-11-07T11:04:26.588Z,93.8
2017-11-07T11:05:25.237Z,93.8
2017-11-07T11:06:24.641Z,93.6
2017-11-07T11:07:23.801Z,93.3
2017-11-07T11:08:22.443Z,93.1
2017-11-07T11:09:21.959Z,93.4
2017-11-07T11:10:20.705Z,93.5
2017-11-07T11:11:19.867Z,93.6
2017-11-07T11:12:19.117Z,93.7
2017-11-07T11:13:18.022Z,93.7
2017-11-07T11:14:17.449Z,93.7
2017-11-07T11:15:16.092Z,93.6
2017-11-07T11:16:15.371Z,93.4
2017-11-07T11:17:14.384Z,93.5
2017-11-07T11:18:13.539Z,93.4
2017-11-07T11:19:12.427Z,93.2
2017-11-07T11:20:11.566Z,93.2
2017-11-07T11:21:10.580Z,93.2
2017-11-07T11:22:09.853Z,93.1
2017-11-07T11:23:08.897Z,93.1
2017-11-07T11:24:08.045Z,93.2
2017-11-07T11:25:06.850Z,93.1
2017-11-07T11:26:06.367Z,93
2017-11-07T11:26:36.693Z,93
2017-11-07T11:27:07.028Z,93
2017-11-07T11:27:37.489Z,93
2017-11-07T11:29:03.318Z,92.8
2017-11-07T11:32:00.467Z,93
2017-11-07T11:34:58.249Z,93.1
2017-11-07T11:35:56.757Z,93
2017-11-07T11:36:56.048Z,92.8
2017-11-07T11:37:26.508Z,92.8
2017-11-07T11:37:56.832Z,92.9
2017-11-07T11:38:54.201Z,92.6
2017-11-07T11:39:53.352Z,92.4
2017-11-07T11:40:52.368Z,92.4
2017-11-07T11:41:51.390Z,92.3
2017-11-07T11:42:50.409Z,92.4
2017-11-07T11:43:49.689Z,92.4
2017-11-07T11:44:48.973Z,92.2
2017-11-07T11:45:47.990Z,92.1
2017-11-07T11:46:47.134Z,92.3
2017-11-07T11:47:46.151Z,92.6
2017-11-07T11:48:45.035Z,92.6
2017-11-07T11:49:44.187Z,92.4
2017-11-07T11:50:43.363Z,92.4
2017-11-07T11:51:42.487Z,92.1
2017-11-07T11:52:41.764Z,92.4
2017-11-07T11:53:40.648Z,92.3
2017-11-07T11:54:39.932Z,92.1
2017-11-07T11:55:38.713Z,92.3
2017-11-07T11:56:37.860Z,91.9
2017-11-07T11:57:37.013Z,91.9
2017-11-07T11:58:35.790Z,92.1
2017-11-07T11:59:34.818Z,91.9
2017-11-07T12:00:34.473Z,92
2017-11-07T12:01:33.136Z,92.1
2017-11-07T12:02:32.652Z,92.2
2017-11-07T12:03:31.671Z,92.3
2017-11-07T12:04:30.805Z,92.6
2017-11-07T12:05:29.446Z,92.6
2017-11-07T12:06:28.965Z,92.7
2017-11-07T12:07:27.977Z,92.6
2017-11-07T12:08:26.861Z,92.6
2017-11-07T12:09:26.277Z,92.7
2017-11-07T12:10:25.066Z,92.6
2017-11-07T12:11:24.206Z,92.5
2017-11-07T12:12:23.525Z,92.6
2017-11-07T12:13:22.566Z,92.5
2017-11-07T12:14:21.576Z,92.5
2017-11-07T12:15:20.360Z,92.7
2017-11-07T12:16:19.506Z,92.8
2017-11-07T12:17:18.799Z,92.8
2017-11-07T12:18:17.944Z,92.9
2017-11-07T12:19:16.829Z,92.9
2017-11-07T12:20:15.985Z,92.7
2017-11-07T12:21:14.996Z,92.7
2017-11-07T12:22:14.414Z,92.7
2017-11-07T12:24:12.314Z,92.5
2017-11-07T12:25:11.470Z,92.6
2017-11-07T12:26:10.484Z,92.6
2017-11-07T12:27:09.639Z,92.5
2017-11-07T12:28:08.937Z,92.5
2017-11-07T12:29:07.742Z,92.3
2017-11-07T12:30:07.129Z,92.6
2017-11-07T12:31:06.297Z,92.4
2017-11-07T12:32:05.475Z,92.4
2017-11-07T12:33:04.124Z,92.3
2017-11-07T12:34:03.279Z,92.3
2017-11-07T12:35:02.423Z,92.4
2017-11-07T12:36:01.974Z,92.1
2017-11-07T12:37:00.611Z,91.9
2017-11-07T12:37:59.627Z,91.9
2017-11-07T12:38:58.771Z,91.9
2017-11-07T12:39:57.656Z,92.3
2017-11-07T12:40:57.173Z,92.2
2017-11-07T12:41:56.093Z,91.7
2017-11-07T12:42:54.976Z,91.6
2017-11-07T12:43:54.270Z,91.7
2017-11-07T12:44:53.185Z,91.6
2017-11-07T12:45:52.601Z,91.5
2017-11-07T12:46:51.748Z,91.6
2017-11-07T12:47:50.391Z,91.5
2017-11-07T12:48:49.697Z,91.6
2017-11-07T12:49:48.573Z,91.3
2017-11-07T12:50:48.229Z,91.4
2017-11-07T12:51:47.106Z,91.4
2017-11-07T12:52:45.880Z,91.4
2017-11-07T12:53:45.032Z,91.5
2017-11-07T12:54:44.050Z,91.5
2017-11-07T12:55:43.565Z,91.6
2017-11-07T12:56:42.716Z,91.6
2017-11-07T12:57:41.729Z,91.6
2017-11-07T12:58:40.613Z,91.5
2017-11-07T12:59:39.630Z,91.6
2017-11-07T13:00:38.639Z,91.3
2017-11-07T13:01:38.155Z,91.4
2017-11-07T13:02:08.722Z,91.4
2017-11-07T13:02:39.186Z,91.4
2017-11-07T13:03:09.675Z,91.4
2017-11-07T13:03:39.769Z,91.4
2017-11-07T13:04:10.233Z,91.4
2017-11-07T13:05:34.563Z,91.7
2017-11-07T13:06:33.710Z,91.9
2017-11-07T13:07:32.593Z,91.8
2017-11-07T13:08:31.778Z,91.9
2017-11-07T13:09:30.695Z,92
2017-11-07T13:10:29.708Z,92.2
2017-11-07T13:11:28.988Z,92.4
2017-11-07T13:11:59.055Z,92.4
2017-11-07T13:12:29.514Z,92.3
2017-11-07T13:12:59.965Z,92.3
2017-11-07T13:13:30.558Z,92.4
2017-11-07T13:14:00.993Z,92.4
2017-11-07T13:14:31.453Z,92.5
2017-11-07T13:15:01.655Z,92.5
2017-11-07T13:17:23.729Z,92.4
2017-11-07T13:18:22.747Z,92.4
2017-11-07T13:19:21.896Z,92.5
2017-11-07T13:20:21.040Z,92.4
2017-11-07T13:21:19.826Z,92.5
2017-11-07T13:22:19.240Z,92.5
2017-11-07T13:23:17.880Z,92.7
2017-11-07T13:24:17.539Z,92.7
2017-11-07T13:27:14.317Z,92.7
2017-11-07T13:28:13.455Z,92.7
2017-11-07T13:29:12.969Z,92.6
2017-11-07T13:30:11.978Z,92.5
2017-11-07T13:31:10.990Z,92.5
2017-11-07T13:32:09.866Z,92.6
2017-11-07T13:33:09.164Z,92.6